Time;durP1;ratioP1;P1;durP2;ratioP2;P2;SDS_P1;SDS_P2;PMS_P1;PMS_P2;Temp;Humidity;BMP_temperature;BMP_pressure;BME280_temperature;BME280_humidity;BME280_pressure;Samples;Min_cycle;Max_cycle;Signal;HPM_P1;HPM_P2
2021/12/10 00:01:23;;;;;;;19.23;9.35;;;;;;;1.92;97.83;99734.28;4918980;29;20478;-66
2021/12/10 00:03:54;;;;;;;20.80;9.77;;;;;;;1.89;97.91;99731.97;4918902;29;20119;-66
2021/12/10 00:06:24;;;;;;;29.50;9.77;;;;;;;1.87;98.17;99726.06;4918820;29;20051;-66
2021/12/10 00:08:59;;;;;;;19.27;8.82;;;;;;;1.88;98.04;99729.50;4918785;29;20456;-66
2021/12/10 00:11:26;;;;;;;21.15;10.35;;;;;;;1.87;98.11;99720.81;4918373;29;20103;-66
2021/12/10 00:13:52;;;;;;;19.83;8.93;;;;;;;1.89;98.18;99715.41;4917046;29;20064;-66
2021/12/10 00:16:19;;;;;;;21.80;8.48;;;;;;;1.93;98.46;99711.44;4918643;29;20103;-66
2021/12/10 00:18:52;;;;;;;19.88;9.50;;;;;;;1.95;98.08;99701.56;4918703;29;20035;-66
2021/12/10 00:21:19;;;;;;;21.20;9.45;;;;;;;1.96;98.19;99698.78;4902749;29;20064;-66
2021/12/10 00:23:49;;;;;;;23.77;9.63;;;;;;;2.04;98.10;99695.28;4918539;29;20028;-66
2021/12/10 00:26:14;;;;;;;17.48;8.80;;;;;;;2.08;97.88;99686.06;4918360;29;20107;-66
2021/12/10 00:28:40;;;;;;;25.77;8.88;;;;;;;2.13;97.92;99682.94;4918203;29;20176;-66
2021/12/10 00:31:29;;;;;;;19.23;9.30;;;;;;;2.15;97.94;99657.28;4918411;29;20384;-66
2021/12/10 00:34:00;;;;;;;17.08;7.95;;;;;;;2.16;97.38;99654.47;4918245;29;20492;-66
2021/12/10 00:36:26;;;;;;;20.25;9.82;;;;;;;2.15;97.35;99652.84;4918242;29;20167;-66
2021/12/10 00:38:52;;;;;;;25.80;10.63;;;;;;;2.12;97.42;99645.31;4901340;29;20032;-66
2021/12/10 00:41:19;;;;;;;20.13;8.65;;;;;;;2.11;97.28;99651.53;4918157;29;20042;-66
2021/12/10 00:43:45;;;;;;;24.30;9.60;;;;;;;2.07;97.05;99639.72;4918180;29;20087;-66
2021/12/10 00:46:10;;;;;;;24.45;12.55;;;;;;;2.03;97.25;99632.34;4918034;29;20079;-66
2021/12/10 00:48:36;;;;;;;23.98;8.80;;;;;;;2.02;96.97;99628.91;4918029;29;20468;-66
2021/12/10 00:51:05;;;;;;;15.30;7.72;;;;;;;2.00;96.90;99633.50;4917674;29;20028;-66
2021/12/10 00:53:31;;;;;;;19.02;8.55;;;;;;;1.96;96.67;99627.78;4917566;29;20028;-67
2021/12/10 00:55:57;;;;;;;21.23;9.07;;;;;;;1.96;96.73;99629.56;4917939;29;20024;-66
2021/12/10 00:58:24;;;;;;;18.33;6.88;;;;;;;1.93;97.05;99625.47;4917264;29;20034;-66
2021/12/10 01:00:53;;;;;;;18.35;9.80;;;;;;;1.92;96.77;99609.88;4917842;29;20111;-66
2021/12/10 01:03:23;;;;;;;18.52;7.70;;;;;;;1.88;96.77;99598.88;4917934;29;20028;-66
2021/12/10 01:05:52;;;;;;;21.02;8.07;;;;;;;1.90;96.91;99590.84;4900792;29;20028;-66
2021/12/10 01:08:18;;;;;;;16.50;7.40;;;;;;;1.87;96.92;99585.91;4917690;29;20027;-66
2021/12/10 01:10:58;;;;;;;17.30;6.50;;;;;;;1.85;96.80;99580.81;4917504;29;20032;-66
2021/12/10 01:13:31;;;;;;;14.30;7.50;;;;;;;1.84;96.54;99570.50;4917642;29;20024;-67
2021/12/10 01:25:07;;;;;;;15.60;6.13;;;;;;;1.81;96.53;99541.91;4917091;29;20491;-66
2021/12/10 01:27:14;;;;;;;;;;;;;;;1.81;96.57;99544.53;4909256;29;20036;-66
2021/12/10 01:29:45;;;;;;;8.93;5.35;;;;;;;1.80;96.29;99533.19;4917009;29;20378;-66
2021/12/10 01:32:15;;;;;;;18.33;8.18;;;;;;;1.79;96.10;99528.13;4916759;29;20051;-66
2021/12/10 01:34:42;;;;;;;13.55;5.43;;;;;;;1.80;96.20;99514.00;4917080;29;20024;-67
2021/12/10 01:37:08;;;;;;;11.82;5.35;;;;;;;1.82;95.89;99504.13;4917188;29;20059;-66
2021/12/10 01:39:36;;;;;;;14.40;5.50;;;;;;;1.86;96.00;99508.88;4917274;29;20460;-66
2021/12/10 01:42:14;;;;;;;13.95;5.70;;;;;;;1.85;95.96;99506.41;4917153;29;20535;-66
2021/12/10 01:44:45;;;;;;;14.05;6.20;;;;;;;1.85;95.89;99504.59;4917058;29;20036;-66
2021/12/10 01:47:13;;;;;;;15.07;5.32;;;;;;;1.81;95.60;99498.06;4916953;29;20048;-66
2021/12/10 01:49:40;;;;;;;13.98;5.65;;;;;;;1.83;95.69;99495.25;4917060;29;20407;-66
2021/12/10 01:52:06;;;;;;;19.08;6.55;;;;;;;1.85;95.58;99490.63;4917033;29;20032;-66
2021/12/10 01:54:37;;;;;;;17.35;7.03;;;;;;;1.84;95.51;99491.63;4916967;29;20456;-66
2021/12/10 01:57:04;;;;;;;19.27;7.20;;;;;;;1.82;95.81;99483.91;4917050;29;20058;-66
2021/12/10 01:59:33;;;;;;;12.93;5.70;;;;;;;1.81;95.68;99469.16;4916711;29;20472;-66
2021/12/10 02:02:02;;;;;;;10.77;4.55;;;;;;;1.78;95.19;99477.34;4916628;29;20028;-66
2021/12/10 02:04:33;;;;;;;12.70;5.97;;;;;;;1.80;95.43;99471.94;4916523;29;20027;-66
2021/12/10 02:07:00;;;;;;;15.35;4.72;;;;;;;1.77;95.50;99474.91;4916839;29;20035;-66
2021/12/10 02:09:26;;;;;;;13.85;5.18;;;;;;;1.73;95.68;99459.50;4916870;29;20042;-67
2021/12/10 02:11:51;;;;;;;14.50;6.45;;;;;;;1.73;95.54;99456.06;4916769;29;20036;-67
2021/12/10 02:14:17;;;;;;;10.98;4.95;;;;;;;1.71;95.59;99458.03;4916780;29;20087;-66
2021/12/10 02:16:43;;;;;;;12.38;5.00;;;;;;;1.68;95.35;99447.88;4916112;29;20024;-66
2021/12/10 02:19:10;;;;;;;8.57;4.00;;;;;;;1.65;95.24;99440.31;4916367;29;20365;-66
2021/12/10 02:21:39;;;;;;;14.60;4.97;;;;;;;1.62;95.46;99430.16;4916743;29;20039;-66
2021/12/10 02:24:06;;;;;;;9.65;4.88;;;;;;;1.61;95.22;99423.28;4916773;29;20032;-66
2021/12/10 02:26:36;;;;;;;13.40;5.15;;;;;;;1.58;95.75;99421.81;4916498;29;20036;-66
2021/12/10 02:29:03;;;;;;;8.07;4.10;;;;;;;1.57;95.34;99419.34;4916549;29;20036;-66
2021/12/10 02:31:29;;;;;;;8.68;4.03;;;;;;;1.54;95.72;99412.63;4916666;29;20024;-66
2021/12/10 02:33:55;;;;;;;13.93;6.60;;;;;;;1.53;95.75;99400.50;4916259;29;20102;-66
2021/12/10 02:36:22;;;;;;;11.05;5.60;;;;;;;1.53;95.73;99398.69;4917714;29;20087;-66
2021/12/10 02:38:49;;;;;;;8.48;4.63;;;;;;;1.52;95.43;99391.81;4920496;29;20508;-66
2021/12/10 02:41:17;;;;;;;9.90;4.35;;;;;;;1.54;95.61;99384.53;4920415;29;20039;-66
2021/12/10 02:43:44;;;;;;;10.40;4.00;;;;;;;1.55;95.58;99388.00;4920395;29;20043;-66
2021/12/10 02:46:10;;;;;;;7.72;3.70;;;;;;;1.58;95.38;99379.78;4920226;29;20031;-66
2021/12/10 02:48:36;;;;;;;7.88;3.42;;;;;;;1.62;95.32;99369.72;4920273;29;20067;-66
2021/12/10 02:51:04;;;;;;;6.40;3.22;;;;;;;1.62;95.17;99361.84;4920178;29;20063;-66
2021/12/10 02:53:34;;;;;;;15.60;4.20;;;;;;;1.65;95.28;99358.84;4920180;29;20036;-67
2021/12/10 02:55:59;;;;;;;9.52;3.67;;;;;;;1.66;95.30;99352.63;4920117;29;20038;-67
2021/12/10 02:58:26;;;;;;;8.50;3.22;;;;;;;1.70;94.55;99362.63;4920046;29;20462;-67
2021/12/10 03:00:54;;;;;;;6.30;3.33;;;;;;;1.73;94.56;99361.44;4919800;29;20042;-66
2021/12/10 03:03:20;;;;;;;6.85;3.58;;;;;;;1.78;94.36;99347.75;4919549;29;20039;-66
2021/12/10 03:05:46;;;;;;;8.18;4.32;;;;;;;1.81;94.39;99347.38;4919888;29;20024;-66
2021/12/10 03:08:12;;;;;;;13.27;5.25;;;;;;;1.79;94.22;99331.00;4919185;29;20436;-66
2021/12/10 03:10:39;;;;;;;10.77;3.60;;;;;;;1.80;94.16;99330.81;4919415;29;20096;-66
2021/12/10 03:13:06;;;;;;;13.73;4.50;;;;;;;1.82;93.70;99330.66;4919809;29;20028;-66
2021/12/10 03:15:34;;;;;;;9.52;4.45;;;;;;;1.81;93.65;99332.47;4919804;29;20036;-66
2021/12/10 03:18:00;;;;;;;9.20;4.95;;;;;;;1.82;93.76;99322.75;4919485;29;20028;-66
2021/12/10 03:20:29;;;;;;;14.25;3.80;;;;;;;1.84;93.82;99328.66;4919306;29;20032;-66
2021/12/10 03:22:56;;;;;;;12.93;4.45;;;;;;;1.86;93.36;99322.22;4919661;29;20039;-66
2021/12/10 03:25:22;;;;;;;9.32;4.55;;;;;;;1.88;93.37;99314.97;4919490;29;20028;-66
2021/12/10 03:27:48;;;;;;;11.75;4.93;;;;;;;1.82;93.51;99305.16;4919456;29;20159;-66
2021/12/10 03:30:20;;;;;;;11.57;4.93;;;;;;;1.88;92.86;99307.06;4919506;29;20028;-66
2021/12/10 03:32:47;;;;;;;15.43;5.72;;;;;;;1.89;93.07;99302.66;4919460;29;20496;-66
2021/12/10 03:35:18;;;;;;;9.43;4.20;;;;;;;1.86;93.31;99295.09;4919394;29;20040;-66
2021/12/10 03:37:45;;;;;;;12.20;5.15;;;;;;;1.84;93.31;99290.03;4919441;29;20031;-66
2021/12/10 03:40:15;;;;;;;9.00;4.35;;;;;;;1.82;93.04;99283.34;4919333;29;20037;-66
2021/12/10 03:42:43;;;;;;;10.82;4.45;;;;;;;1.83;93.11;99283.13;4919161;29;20030;-66
2021/12/10 03:45:12;;;;;;;10.30;4.20;;;;;;;1.81;92.83;99273.78;4919133;29;20515;-66
2021/12/10 03:47:38;;;;;;;7.38;3.90;;;;;;;1.82;92.99;99278.06;4918966;29;20098;-66
2021/12/10 03:50:05;;;;;;;6.32;2.92;;;;;;;1.79;93.23;99278.44;4919206;29;20032;-66
2021/12/10 03:52:31;;;;;;;9.60;4.88;;;;;;;1.74;93.05;99274.53;4919173;29;20032;-66
2021/12/10 03:54:59;;;;;;;11.65;3.80;;;;;;;1.71;93.04;99263.56;4918994;29;20047;-66
2021/12/10 03:57:24;;;;;;;6.60;2.90;;;;;;;1.68;93.26;99256.84;4918896;29;20092;-66
2021/12/10 03:59:50;;;;;;;7.63;3.85;;;;;;;1.62;93.12;99249.66;4918891;29;20024;-66
2021/12/10 04:02:15;;;;;;;7.35;3.30;;;;;;;1.64;93.55;99254.75;4918948;29;20551;-67
2021/12/10 04:04:48;;;;;;;10.68;3.28;;;;;;;1.61;93.48;99239.34;4918279;29;20079;-66
2021/12/10 04:07:20;;;;;;;10.55;3.55;;;;;;;1.61;93.45;99247.22;4918821;29;20071;-66
2021/12/10 04:09:47;;;;;;;7.45;3.25;;;;;;;1.58;93.12;99239.72;4918750;29;20110;-66
2021/12/10 04:12:13;;;;;;;4.28;2.45;;;;;;;1.59;92.95;99244.75;4918790;29;20035;-66
2021/12/10 04:14:40;;;;;;;5.97;2.60;;;;;;;1.60;93.46;99240.31;4917806;29;20044;-66
2021/12/10 04:17:07;;;;;;;14.77;4.05;;;;;;;1.61;93.37;99242.78;4918156;29;20036;-66
2021/12/10 04:19:34;;;;;;;12.00;3.05;;;;;;;1.62;93.28;99230.44;4918012;29;20043;-66
2021/12/10 04:22:03;;;;;;;6.53;2.78;;;;;;;1.62;93.45;99228.63;4917991;29;20032;-66
2021/12/10 04:24:32;;;;;;;10.52;4.53;;;;;;;1.65;93.51;99216.94;4918510;29;20087;-66
2021/12/10 04:27:01;;;;;;;6.25;2.85;;;;;;;1.67;93.61;99214.97;4918395;29;20036;-65
2021/12/10 04:29:27;;;;;;;11.93;4.28;;;;;;;1.68;93.27;99206.91;4918347;29;20063;-66
2021/12/10 04:31:56;;;;;;;6.90;2.72;;;;;;;1.73;93.39;99209.81;4918356;29;20059;-66
2021/12/10 04:34:22;;;;;;;8.45;2.67;;;;;;;1.75;93.40;99202.56;4899549;29;20104;-66
2021/12/10 04:36:50;;;;;;;7.38;2.53;;;;;;;1.81;93.22;99195.78;4899406;29;20429;-66
2021/12/10 04:39:15;;;;;;;5.53;2.35;;;;;;;1.86;93.28;99197.84;4899477;29;20063;-66
2021/12/10 04:41:41;;;;;;;5.35;3.25;;;;;;;1.89;92.99;99187.81;4899380;29;20472;-66
2021/12/10 04:44:07;;;;;;;4.85;2.55;;;;;;;1.91;92.93;99187.59;4899298;29;20036;-66
2021/12/10 04:46:34;;;;;;;7.82;2.63;;;;;;;1.93;93.09;99183.00;4898831;29;20043;-66
2021/12/10 04:49:04;;;;;;;9.05;2.88;;;;;;;1.93;93.10;99178.53;4899047;29;20028;-66
2021/12/10 04:51:34;;;;;;;7.70;2.70;;;;;;;1.96;93.31;99167.69;4899304;29;20052;-66
2021/12/10 04:54:01;;;;;;;7.97;3.35;;;;;;;1.92;93.01;99153.25;4899264;29;20468;-66
2021/12/10 04:56:27;;;;;;;5.40;2.42;;;;;;;2.02;92.58;99160.03;4899157;29;20056;-66
2021/12/10 04:58:53;;;;;;;5.32;2.65;;;;;;;2.03;92.39;99154.59;4898383;29;20032;-66
2021/12/10 05:01:19;;;;;;;7.50;3.05;;;;;;;2.04;92.29;99143.09;4899128;29;20445;-65
2021/12/10 05:03:45;;;;;;;5.60;2.53;;;;;;;2.04;92.26;99140.44;4898957;29;20032;-66
2021/12/10 05:06:10;;;;;;;5.63;2.83;;;;;;;2.05;91.98;99131.59;4898264;29;20040;-66
2021/12/10 05:08:38;;;;;;;7.32;2.17;;;;;;;2.06;91.55;99133.19;4898558;29;20033;-66
2021/12/10 05:11:07;;;;;;;7.07;2.10;;;;;;;2.07;91.43;99121.72;4898739;29;20033;-66
2021/12/10 05:13:34;;;;;;;6.95;2.25;;;;;;;2.09;91.95;99108.34;4898565;29;20047;-66
2021/12/10 05:16:00;;;;;;;7.80;3.22;;;;;;;2.08;91.76;99115.44;4898400;29;20100;-66
2021/12/10 05:18:31;;;;;;;8.10;2.95;;;;;;;2.07;91.68;99103.28;4898753;29;20032;-66
2021/12/10 05:20:57;;;;;;;6.18;2.22;;;;;;;2.12;91.50;99094.84;4898722;29;20030;-66
2021/12/10 05:23:23;;;;;;;6.25;2.25;;;;;;;2.12;91.49;99097.47;4897693;29;20460;-66
2021/12/10 05:25:50;;;;;;;4.80;1.67;;;;;;;2.14;91.59;99101.53;4898515;29;20037;-66
2021/12/10 05:28:17;;;;;;;6.07;2.15;;;;;;;2.15;91.75;99095.28;4898707;29;20516;-65
2021/12/10 05:30:44;;;;;;;6.22;3.10;;;;;;;2.17;91.41;99095.09;4898498;29;20044;-66
2021/12/10 05:33:15;;;;;;;7.13;2.08;;;;;;;2.19;91.91;99093.09;4907635;29;20084;-65
2021/12/10 05:35:41;;;;;;;7.05;1.92;;;;;;;2.22;91.77;99094.53;4917294;29;20395;-66
2021/12/10 05:38:07;;;;;;;10.95;4.05;;;;;;;2.21;91.61;99093.72;4917244;29;20040;-66
2021/12/10 05:40:32;;;;;;;7.97;3.08;;;;;;;2.22;91.79;99095.34;4917194;29;20472;-66
2021/12/10 05:42:57;;;;;;;5.82;1.90;;;;;;;2.23;91.52;99085.63;4917216;29;20036;-66
2021/12/10 05:45:24;;;;;;;9.23;2.97;;;;;;;2.25;91.30;99084.44;4917033;29;20141;-66
2021/12/10 05:47:51;;;;;;;3.17;1.75;;;;;;;2.26;91.31;99077.41;4916777;29;20024;-66
2021/12/10 05:50:20;;;;;;;5.50;2.20;;;;;;;2.30;91.23;99073.38;4915856;29;20035;-66
2021/12/10 05:52:46;;;;;;;5.03;2.78;;;;;;;2.29;91.67;99066.50;4916412;29;20039;-66
2021/12/10 05:55:12;;;;;;;4.18;2.30;;;;;;;2.35;91.92;99078.91;4916763;29;20040;-67
2021/12/10 05:57:38;;;;;;;7.18;1.98;;;;;;;2.32;91.28;99066.94;4916848;29;20192;-66
2021/12/10 06:00:08;;;;;;;6.57;2.38;;;;;;;2.35;90.98;99061.28;4916539;29;20036;-66
2021/12/10 06:02:33;;;;;;;8.65;2.55;;;;;;;2.38;90.83;99068.00;4916734;29;20172;-66
2021/12/10 06:04:59;;;;;;;3.10;1.30;;;;;;;2.39;90.51;99064.38;4916879;29;20027;-66
2021/12/10 06:07:25;;;;;;;6.43;1.88;;;;;;;2.41;90.61;99067.63;4916772;29;20234;-66
2021/12/10 06:09:50;;;;;;;5.00;2.10;;;;;;;2.43;90.66;99063.00;4916628;29;20075;-66
2021/12/10 06:12:16;;;;;;;5.55;1.90;;;;;;;2.36;90.69;99047.16;4916721;29;20040;-66
2021/12/10 06:14:41;;;;;;;3.30;1.65;;;;;;;2.40;90.83;99050.22;4899678;29;20032;-66
2021/12/10 06:17:06;;;;;;;4.88;1.92;;;;;;;2.43;90.93;99055.09;4916677;29;20034;-66
2021/12/10 06:19:32;;;;;;;7.95;1.90;;;;;;;2.44;90.21;99045.38;4916688;29;20077;-66
2021/12/10 06:21:57;;;;;;;6.93;2.33;;;;;;;2.42;91.13;99046.38;4916708;29;20195;-66
2021/12/10 06:24:23;;;;;;;5.15;2.47;;;;;;;2.44;90.78;99051.47;4899327;29;20040;-66
2021/12/10 06:26:52;;;;;;;2.17;1.40;;;;;;;2.43;90.90;99044.56;4916160;29;20036;-66
2021/12/10 06:29:17;;;;;;;3.63;2.28;;;;;;;2.44;90.87;99033.06;4916817;29;20581;-66
2021/12/10 06:31:42;;;;;;;7.13;1.98;;;;;;;2.43;90.79;99041.94;4916546;29;20047;-66
2021/12/10 06:34:08;;;;;;;8.90;1.90;;;;;;;2.42;91.06;99042.94;4916300;29;20052;-66
2021/12/10 06:36:35;;;;;;;8.00;1.92;;;;;;;2.40;90.30;99031.78;4899445;29;20403;-66
2021/12/10 06:39:02;;;;;;;4.38;1.65;;;;;;;2.39;90.65;99032.81;4899925;29;20051;-66
2021/12/10 06:41:28;;;;;;;2.67;1.67;;;;;;;2.38;90.52;99031.16;4899647;29;20043;-66
2021/12/10 06:43:54;;;;;;;3.58;1.80;;;;;;;2.43;90.91;99036.69;4916473;29;20075;-66
2021/12/10 06:46:19;;;;;;;12.32;2.58;;;;;;;2.43;90.38;99039.31;4899566;29;20036;-66
2021/12/10 06:48:44;;;;;;;3.05;1.60;;;;;;;2.43;90.65;99028.78;4916555;29;20089;-66
2021/12/10 06:51:16;;;;;;;5.18;2.08;;;;;;;2.44;90.56;99043.59;4916216;29;20028;-66
2021/12/10 06:53:44;;;;;;;9.30;1.95;;;;;;;2.46;90.55;99043.38;4915732;29;20024;-66
2021/12/10 06:56:09;;;;;;;3.55;2.17;;;;;;;2.46;90.49;99046.81;4915992;29;20040;-66
2021/12/10 06:58:35;;;;;;;6.85;2.80;;;;;;;2.45;91.07;99039.13;4916569;29;20024;-66
2021/12/10 07:01:33;;;;;;;8.77;1.50;;;;;;;2.46;90.84;99040.75;4927759;29;20065;-67
2021/12/10 07:04:00;;;;;;;4.97;2.28;;;;;;;2.45;90.99;99042.56;4907707;29;20047;-66
2021/12/10 07:06:27;;;;;;;3.67;1.63;;;;;;;2.42;91.11;99038.50;4931944;29;20028;-66
2021/12/10 07:08:54;;;;;;;13.63;2.63;;;;;;;2.45;90.61;99050.47;4931172;29;20055;-66
2021/12/10 07:11:21;;;;;;;6.97;1.90;;;;;;;2.46;90.86;99046.81;4931494;29;20043;-66
2021/12/10 07:13:51;;;;;;;5.68;1.85;;;;;;;2.48;90.58;99047.44;4931867;29;20395;-65
2021/12/10 07:16:20;;;;;;;9.70;2.55;;;;;;;2.48;90.68;99044.81;4934062;29;20051;-66
2021/12/10 07:18:46;;;;;;;6.28;3.00;;;;;;;2.46;90.26;99044.19;4935160;29;20067;-66
2021/12/10 07:21:12;;;;;;;8.77;2.33;;;;;;;2.45;90.34;99050.47;4935012;29;20058;-66
2021/12/10 07:23:40;;;;;;;12.02;2.97;;;;;;;2.36;89.76;99035.81;4938413;29;20062;-66
2021/12/10 07:26:06;;;;;;;10.23;2.95;;;;;;;2.42;90.36;99038.50;4938326;29;20063;-65
2021/12/10 07:28:33;;;;;;;9.90;2.90;;;;;;;2.43;89.93;99036.69;4938346;29;20063;-66
2021/12/10 07:30:58;;;;;;;6.70;2.28;;;;;;;2.48;90.19;99041.38;4938494;29;20507;-66
2021/12/10 07:33:24;;;;;;;8.80;3.38;;;;;;;2.48;89.53;99036.94;4921253;29;20056;-67
2021/12/10 07:35:51;;;;;;;10.88;2.92;;;;;;;2.49;89.48;99038.56;4937925;29;20115;-66
2021/12/10 07:38:17;;;;;;;14.07;4.53;;;;;;;2.51;89.78;99041.00;4938331;29;20391;-66
2021/12/10 07:40:44;;;;;;;5.45;2.25;;;;;;;2.51;89.07;99033.91;4938356;29;20114;-66
2021/12/10 07:43:10;;;;;;;4.72;2.13;;;;;;;2.53;89.56;99034.53;4938166;29;20086;-66
2021/12/10 07:45:36;;;;;;;6.80;1.92;;;;;;;2.54;89.18;99036.19;4938116;29;20027;-66
2021/12/10 07:48:07;;;;;;;5.00;2.25;;;;;;;2.57;89.37;99040.25;4938100;29;20114;-66
2021/12/10 07:50:37;;;;;;;6.82;3.55;;;;;;;2.54;88.81;99023.03;4937817;29;20031;-66
2021/12/10 07:53:04;;;;;;;3.50;1.90;;;;;;;2.54;89.50;99036.19;4938037;29;20024;-66
2021/12/10 07:55:32;;;;;;;13.48;3.50;;;;;;;2.56;89.12;99035.97;4938078;29;20027;-66
2021/12/10 07:57:59;;;;;;;10.00;3.75;;;;;;;2.56;89.38;99038.63;4920853;29;20039;-66
2021/12/10 08:00:28;;;;;;;5.53;2.70;;;;;;;2.56;88.90;99043.88;4937930;29;20028;-66
2021/12/10 08:02:53;;;;;;;13.35;3.85;;;;;;;2.55;89.29;99056.22;4937848;29;20446;-65
2021/12/10 08:05:21;;;;;;;7.90;3.00;;;;;;;2.54;89.30;99051.13;4937837;29;20148;-66
2021/12/10 08:07:47;;;;;;;10.30;3.42;;;;;;;2.54;88.76;99044.09;4937822;29;20380;-66
2021/12/10 08:10:15;;;;;;;8.05;2.83;;;;;;;2.59;89.24;99051.38;4937881;29;20038;-66
2021/12/10 08:12:40;;;;;;;9.95;4.15;;;;;;;2.61;89.13;99034.41;4937869;29;20046;-66
2021/12/10 08:15:07;;;;;;;10.40;2.80;;;;;;;2.65;89.88;99050.66;4937771;29;20493;-66
2021/12/10 08:17:32;;;;;;;7.00;3.05;;;;;;;2.70;89.60;99048.25;4937575;29;20031;-65
2021/12/10 08:19:59;;;;;;;7.18;2.67;;;;;;;2.75;89.62;99047.66;4937616;29;20119;-65
2021/12/10 08:22:24;;;;;;;8.15;3.50;;;;;;;2.76;88.47;99038.78;4937679;29;20063;-65
2021/12/10 08:24:49;;;;;;;8.23;4.18;;;;;;;2.83;89.08;99048.38;4937500;29;20443;-66
2021/12/10 08:27:15;;;;;;;10.45;4.15;;;;;;;2.87;88.40;99048.78;4937162;29;20066;-65
2021/12/10 08:29:43;;;;;;;12.65;3.40;;;;;;;2.92;88.25;99048.22;4936742;29;20038;-65
2021/12/10 08:32:12;;;;;;;9.80;3.38;;;;;;;2.94;87.65;99051.47;4937277;29;20094;-66
2021/12/10 08:34:38;;;;;;;9.57;3.03;;;;;;;2.96;88.33;99047.66;4936304;29;20070;-66
2021/12/10 08:37:04;;;;;;;8.25;4.80;;;;;;;2.97;87.78;99054.53;4920309;29;20118;-66
2021/12/10 08:39:29;;;;;;;7.25;3.60;;;;;;;3.00;88.05;99051.50;4937296;29;20043;-66
2021/12/10 08:41:56;;;;;;;7.40;3.22;;;;;;;3.02;87.09;99057.41;4937213;29;20082;-66
2021/12/10 08:44:23;;;;;;;7.50;2.80;;;;;;;3.05;87.82;99053.56;4937055;29;20055;-66
2021/12/10 08:46:48;;;;;;;8.23;3.55;;;;;;;3.07;87.00;99054.22;4936412;29;20479;-66
2021/12/10 08:49:15;;;;;;;14.90;5.85;;;;;;;3.07;86.89;99052.38;4936762;29;20027;-66
2021/12/10 08:51:45;;;;;;;13.00;4.75;;;;;;;3.10;86.54;99047.75;4937033;29;20031;-66
2021/12/10 08:54:12;;;;;;;12.70;4.93;;;;;;;3.10;86.36;99053.81;4936793;29;20042;-66
2021/12/10 08:56:39;;;;;;;7.57;4.22;;;;;;;3.12;86.92;99050.97;4936885;29;20522;-66
2021/12/10 08:59:06;;;;;;;8.75;4.00;;;;;;;3.13;86.84;99053.41;4937237;29;20078;-66
2021/12/10 09:01:35;;;;;;;10.05;4.60;;;;;;;3.14;86.49;99056.88;4936809;29;20028;-66
2021/12/10 09:04:04;;;;;;;7.72;3.42;;;;;;;3.16;86.75;99044.31;4936685;29;20582;-66
2021/12/10 09:06:31;;;;;;;7.45;3.40;;;;;;;3.20;86.50;99056.13;4936612;29;20031;-66
2021/12/10 09:08:57;;;;;;;9.65;4.30;;;;;;;3.19;85.96;99055.28;4936687;29;20036;-66
2021/12/10 09:11:23;;;;;;;12.75;4.60;;;;;;;3.21;86.46;99057.72;4936631;29;20386;-66
2021/12/10 09:13:49;;;;;;;12.45;4.60;;;;;;;3.23;86.85;99061.00;4936552;29;20369;-66
2021/12/10 09:16:23;;;;;;;8.60;4.15;;;;;;;3.25;86.88;99062.44;4936576;29;20079;-65
2021/12/10 09:18:50;;;;;;;8.43;3.72;;;;;;;3.28;86.72;99067.31;4936599;29;20038;-66
2021/12/10 09:21:16;;;;;;;10.63;3.90;;;;;;;3.30;86.08;99064.47;4936553;29;20447;-66
2021/12/10 09:23:41;;;;;;;7.88;3.95;;;;;;;3.32;85.86;99070.34;4936480;29;20035;-66
2021/12/10 09:26:12;;;;;;;8.73;4.47;;;;;;;3.37;86.38;99070.59;4936381;29;20044;-66
2021/12/10 09:28:40;;;;;;;11.05;3.78;;;;;;;3.41;85.98;99071.03;4936523;29;20114;-66
2021/12/10 09:31:07;;;;;;;8.98;3.65;;;;;;;3.46;86.02;99069.44;4935960;29;20027;-66
2021/12/10 09:33:32;;;;;;;8.88;3.33;;;;;;;3.51;85.97;99064.41;4935995;29;20059;-66
2021/12/10 09:35:58;;;;;;;8.75;3.42;;;;;;;3.51;85.39;99067.03;4936269;29;20098;-66
2021/12/10 09:38:25;;;;;;;13.35;3.05;;;;;;;3.53;84.82;99072.09;4936083;29;20033;-66
2021/12/10 09:40:54;;;;;;;9.02;3.05;;;;;;;3.56;85.39;99081.44;4936108;29;20031;-66
2021/12/10 09:43:21;;;;;;;10.07;3.80;;;;;;;3.61;85.21;99074.56;4936139;29;20027;-66
2021/12/10 09:45:48;;;;;;;7.85;3.20;;;;;;;3.61;84.98;99071.94;4935710;29;20039;-66
2021/12/10 09:48:16;;;;;;;6.85;2.95;;;;;;;3.68;84.42;99077.25;4935887;29;20071;-66
2021/12/10 09:51:01;;;;;;;8.75;3.63;;;;;;;3.73;84.30;99070.38;4935965;29;20082;-66
2021/12/10 09:53:31;;;;;;;12.10;3.92;;;;;;;3.77;83.89;99076.06;4935784;29;20432;-67
2021/12/10 09:56:00;;;;;;;7.45;4.18;;;;;;;3.80;84.02;99073.06;4935951;29;20106;-66
2021/12/10 09:58:25;;;;;;;8.35;3.70;;;;;;;3.89;83.93;99071.06;4935795;29;20039;-66
2021/12/10 10:01:06;;;;;;;7.25;2.95;;;;;;;3.95;83.95;99070.25;4935879;29;20028;-66
2021/12/10 10:03:37;;;;;;;11.90;4.27;;;;;;;3.95;84.40;99067.59;4935879;29;20079;-67
2021/12/10 10:06:03;;;;;;;7.63;3.37;;;;;;;4.00;84.32;99064.38;4935731;29;20031;-66
2021/12/10 10:08:29;;;;;;;7.97;3.83;;;;;;;4.02;83.59;99063.19;4935815;29;20031;-66
2021/12/10 10:11:01;;;;;;;7.13;3.22;;;;;;;4.03;82.80;99067.44;4935768;29;20156;-66
2021/12/10 10:13:31;;;;;;;9.68;3.17;;;;;;;3.97;83.35;99062.97;4935767;29;20043;-66
2021/12/10 10:15:59;;;;;;;9.02;3.38;;;;;;;4.08;83.63;99077.41;4935064;29;20028;-66
2021/12/10 10:18:27;;;;;;;7.70;2.95;;;;;;;4.08;84.09;99072.94;4935441;29;20098;-66
2021/12/10 10:20:57;;;;;;;9.48;2.92;;;;;;;4.04;83.80;99071.72;4935710;29;20032;-70
2021/12/10 10:23:25;;;;;;;7.25;3.20;;;;;;;4.04;83.82;99082.25;4935619;29;20471;-66
2021/12/10 10:25:54;;;;;;;9.23;3.47;;;;;;;4.06;83.34;99074.13;4935498;29;20032;-66
2021/12/10 10:28:20;;;;;;;8.65;3.75;;;;;;;4.08;83.75;99078.19;4935825;29;20039;-67
2021/12/10 10:31:00;;;;;;;9.55;3.13;;;;;;;4.07;83.36;99071.31;4935443;29;20082;-66
2021/12/10 10:33:30;;;;;;;9.88;3.65;;;;;;;4.07;84.00;99070.50;4934831;29;20103;-67
2021/12/10 10:35:58;;;;;;;6.60;2.80;;;;;;;4.07;83.99;99078.41;4929985;29;20032;-67
2021/12/10 10:38:26;;;;;;;8.80;3.47;;;;;;;4.07;83.84;99078.41;4912069;29;20121;-67
2021/12/10 10:40:56;;;;;;;6.97;2.90;;;;;;;4.02;84.33;99079.00;4912638;29;20032;-68
2021/12/10 10:43:24;;;;;;;6.55;2.47;;;;;;;4.05;84.78;99075.97;4912596;29;20115;-68
2021/12/10 10:45:50;;;;;;;10.23;3.50;;;;;;;4.11;84.57;99071.72;4912451;29;20146;-68
2021/12/10 10:48:17;;;;;;;10.13;3.63;;;;;;;4.09;83.79;99073.75;4912442;29;20094;-67
2021/12/10 10:50:49;;;;;;;8.93;2.75;;;;;;;4.07;82.41;99083.69;4911737;29;20103;-67
2021/12/10 10:53:18;;;;;;;9.57;2.75;;;;;;;4.07;83.29;99075.78;4912652;29;20028;-67
2021/12/10 10:56:04;;;;;;;6.88;2.80;;;;;;;4.03;83.43;99074.53;4912562;29;20027;-67
2021/12/10 10:58:36;;;;;;;9.43;3.28;;;;;;;4.10;83.44;99080.66;4915947;29;20511;-66
2021/12/10 11:01:06;;;;;;;8.73;3.10;;;;;;;4.16;83.28;99074.56;4915989;29;20052;-65
2021/12/10 11:03:37;;;;;;;7.57;3.53;;;;;;;4.20;82.70;99085.56;4917911;29;20031;-67
2021/12/10 11:06:08;;;;;;;6.97;2.80;;;;;;;4.23;83.43;99078.06;4919797;29;20039;-67
2021/12/10 11:08:45;;;;;;;9.20;4.43;;;;;;;4.23;83.31;99066.69;4919727;29;20039;-66
2021/12/10 11:11:11;;;;;;;10.77;3.50;;;;;;;4.35;82.80;99075.66;4919381;29;20035;-67
2021/12/10 11:13:38;;;;;;;6.28;3.03;;;;;;;4.36;82.86;99072.81;4919903;29;20024;-67
2021/12/10 11:16:10;;;;;;;12.25;3.20;;;;;;;4.38;82.30;99076.06;4919810;29;20028;-67
2021/12/10 11:18:40;;;;;;;;;;;;;;;4.42;83.94;99075.66;4920143;29;20036;-67
2021/12/10 11:21:06;;;;;;;4.97;3.08;;;;;;;4.42;82.51;99081.75;4919604;29;19947;-67
2021/12/10 11:23:33;;;;;;;11.38;4.43;;;;;;;4.43;82.89;99082.53;4919106;29;20055;-68
2021/12/10 11:25:59;;;;;;;10.95;2.75;;;;;;;4.45;81.59;99078.69;4919513;29;20036;-67
2021/12/10 11:28:31;;;;;;;12.48;3.42;;;;;;;4.35;81.02;99070.38;4919554;29;20036;-67
2021/12/10 11:31:18;;;;;;;7.15;2.80;;;;;;;4.44;82.24;99082.38;4919553;29;20024;-67
2021/12/10 11:33:49;;;;;;;9.07;2.60;;;;;;;4.42;81.76;99083.56;4929148;29;20071;-67
2021/12/10 11:36:18;;;;;;;5.80;2.80;;;;;;;4.43;81.64;99090.47;4938244;29;20034;-68
2021/12/10 11:38:46;;;;;;;7.40;3.88;;;;;;;4.42;81.54;99080.94;4938377;29;20286;-67
2021/12/10 11:41:22;;;;;;;9.70;3.33;;;;;;;4.42;80.09;99086.22;4938193;29;20091;-67
2021/12/10 11:44:06;;;;;;;8.88;2.95;;;;;;;4.35;81.24;99073.81;4938357;29;20107;-68
2021/12/10 11:49:21;;;;;;;7.80;2.50;;;;;;;4.30;80.83;99088.63;4938281;29;20427;-67
2021/12/10 11:51:56;;;;;;;5.50;3.13;;;;;;;4.39;81.47;99097.97;4938190;29;20028;-67
2021/12/10 11:54:38;;;;;;;3.92;1.98;;;;;;;4.39;81.80;99101.44;4938164;29;20031;-67